Pompano Beach, Florida
Current Conditions -  °F | °C
As of 11:53 AM on Thursday 27 Nov 2014 (Local Time) from KFXE Reporting Station
Clear Clear  
Wind Chill: 68°   Ceiling: Unl
Heat Index: 68°   Visibility: 10mi
Dew Point: 37°   Wind: 14mph
Humidity: 32%   Direction: 350°N
Pressure: 30.23"   Gusts: 20mph
Location:  26.23°N, 80.16°W
Report Text: KFXE 271653Z 35012G17KT 10SM CLR 20/03 A3023 RMK AO2 SLP238 T02000028
Loading
Personal Weather Stations






























Interactive Weather Map New forecast layout! Learn more

10-Day Weather Forecast

Advertisements
Track Severe Weather on mobile